sensor_id;sensor_type;location;lat;lon;timestamp;P1;durP1;ratioP1;P2;durP2;ratioP2
53040;SDS011;39326;42.650;23.248;2022-12-18T00:01:31;2.57;;;2.37;;
53040;SDS011;39326;42.650;23.248;2022-12-18T00:03:59;2.70;;;2.50;;
53040;SDS011;39326;42.650;23.248;2022-12-18T00:06:26;4.17;;;3.80;;
53040;SDS011;39326;42.650;23.248;2022-12-18T00:08:52;3.57;;;3.27;;
53040;SDS011;39326;42.650;23.248;2022-12-18T00:11:20;2.77;;;2.57;;
53040;SDS011;39326;42.650;23.248;2022-12-18T00:13:47;3.80;;;3.50;;
53040;SDS011;39326;42.650;23.248;2022-12-18T00:16:14;4.57;;;4.17;;
53040;SDS011;39326;42.650;23.248;2022-12-18T00:18:41;4.43;;;4.00;;
53040;SDS011;39326;42.650;23.248;2022-12-18T00:21:08;4.53;;;3.50;;
53040;SDS011;39326;42.650;23.248;2022-12-18T00:23:36;3.90;;;3.60;;
53040;SDS011;39326;42.650;23.248;2022-12-18T00:26:05;4.00;;;3.60;;
53040;SDS011;39326;42.650;23.248;2022-12-18T00:28:33;4.13;;;3.83;;
53040;SDS011;39326;42.650;23.248;2022-12-18T00:31:05;3.73;;;3.43;;
53040;SDS011;39326;42.650;23.248;2022-12-18T00:33:33;4.27;;;3.90;;
53040;SDS011;39326;42.650;23.248;2022-12-18T00:36:06;3.60;;;3.30;;
53040;SDS011;39326;42.650;23.248;2022-12-18T00:38:34;4.43;;;3.93;;
53040;SDS011;39326;42.650;23.248;2022-12-18T00:41:00;4.57;;;4.17;;
53040;SDS011;39326;42.650;23.248;2022-12-18T00:43:26;4.23;;;3.83;;
53040;SDS011;39326;42.650;23.248;2022-12-18T00:45:51;3.30;;;3.00;;
53040;SDS011;39326;42.650;23.248;2022-12-18T00:48:17;4.40;;;4.00;;
53040;SDS011;39326;42.650;23.248;2022-12-18T00:50:43;3.83;;;3.50;;
53040;SDS011;39326;42.650;23.248;2022-12-18T00:53:08;3.80;;;3.50;;
53040;SDS011;39326;42.650;23.248;2022-12-18T00:55:36;5.07;;;4.67;;
53040;SDS011;39326;42.650;23.248;2022-12-18T00:58:03;4.30;;;3.90;;
53040;SDS011;39326;42.650;23.248;2022-12-18T01:00:29;4.93;;;4.53;;
53040;SDS011;39326;42.650;23.248;2022-12-18T01:02:54;4.07;;;3.73;;
53040;SDS011;39326;42.650;23.248;2022-12-18T01:05:19;4.90;;;4.50;;
53040;SDS011;39326;42.650;23.248;2022-12-18T01:07:45;4.90;;;4.43;;
53040;SDS011;39326;42.650;23.248;2022-12-18T01:10:11;4.70;;;4.30;;
53040;SDS011;39326;42.650;23.248;2022-12-18T01:12:38;5.53;;;5.03;;
53040;SDS011;39326;42.650;23.248;2022-12-18T01:15:05;4.97;;;4.57;;
53040;SDS011;39326;42.650;23.248;2022-12-18T01:17:31;4.57;;;4.17;;
53040;SDS011;39326;42.650;23.248;2022-12-18T01:19:57;4.90;;;4.50;;
53040;SDS011;39326;42.650;23.248;2022-12-18T01:22:23;5.57;;;5.07;;
53040;SDS011;39326;42.650;23.248;2022-12-18T01:24:48;5.40;;;4.90;;
53040;SDS011;39326;42.650;23.248;2022-12-18T01:27:13;4.70;;;4.30;;
53040;SDS011;39326;42.650;23.248;2022-12-18T01:29:39;5.80;;;5.30;;
53040;SDS011;39326;42.650;23.248;2022-12-18T01:32:05;5.40;;;4.90;;
53040;SDS011;39326;42.650;23.248;2022-12-18T01:34:30;5.80;;;5.30;;
53040;SDS011;39326;42.650;23.248;2022-12-18T01:36:55;5.27;;;4.70;;
53040;SDS011;39326;42.650;23.248;2022-12-18T01:39:23;5.60;;;5.10;;
53040;SDS011;39326;42.650;23.248;2022-12-18T01:41:48;5.53;;;5.00;;
53040;SDS011;39326;42.650;23.248;2022-12-18T01:47:56;5.10;;;4.70;;
53040;SDS011;39326;42.650;23.248;2022-12-18T01:50:36;5.90;;;5.40;;
53040;SDS011;39326;42.650;23.248;2022-12-18T01:53:12;5.90;;;5.40;;
53040;SDS011;39326;42.650;23.248;2022-12-18T01:55:50;5.80;;;5.30;;
53040;SDS011;39326;42.650;23.248;2022-12-18T01:58:18;6.57;;;6.07;;
53040;SDS011;39326;42.650;23.248;2022-12-18T02:00:48;5.70;;;5.20;;
53040;SDS011;39326;42.650;23.248;2022-12-18T02:03:13;5.77;;;5.27;;
53040;SDS011;39326;42.650;23.248;2022-12-18T02:08:42;4.10;;;3.70;;
53040;SDS011;39326;42.650;23.248;2022-12-18T02:11:23;5.60;;;5.10;;
53040;SDS011;39326;42.650;23.248;2022-12-18T02:14:04;5.37;;;4.87;;
53040;SDS011;39326;42.650;23.248;2022-12-18T02:27:51;4.30;;;3.90;;
53040;SDS011;39326;42.650;23.248;2022-12-18T02:30:19;4.80;;;4.40;;
53040;SDS011;39326;42.650;23.248;2022-12-18T02:32:46;5.07;;;4.57;;
53040;SDS011;39326;42.650;23.248;2022-12-18T02:35:22;4.93;;;4.53;;
53040;SDS011;39326;42.650;23.248;2022-12-18T02:37:51;5.90;;;4.87;;
53040;SDS011;39326;42.650;23.248;2022-12-18T02:40:18;4.70;;;4.30;;
53040;SDS011;39326;42.650;23.248;2022-12-18T02:42:44;5.53;;;5.03;;
53040;SDS011;39326;42.650;23.248;2022-12-18T02:45:10;5.13;;;4.70;;
53040;SDS011;39326;42.650;23.248;2022-12-18T02:47:39;5.60;;;5.10;;
53040;SDS011;39326;42.650;23.248;2022-12-18T02:50:10;5.80;;;5.30;;
53040;SDS011;39326;42.650;23.248;2022-12-18T02:57:59;5.13;;;4.67;;
53040;SDS011;39326;42.650;23.248;2022-12-18T03:00:40;4.67;;;4.27;;
53040;SDS011;39326;42.650;23.248;2022-12-18T03:03:39;4.90;;;4.40;;
53040;SDS011;39326;42.650;23.248;2022-12-18T03:06:10;5.23;;;4.73;;
53040;SDS011;39326;42.650;23.248;2022-12-18T03:08:46;5.50;;;5.00;;
53040;SDS011;39326;42.650;23.248;2022-12-18T03:11:14;4.70;;;4.30;;
53040;SDS011;39326;42.650;23.248;2022-12-18T03:16:10;4.70;;;4.30;;
53040;SDS011;39326;42.650;23.248;2022-12-18T03:18:43;4.43;;;4.03;;
53040;SDS011;39326;42.650;23.248;2022-12-18T03:21:13;5.07;;;4.57;;
53040;SDS011;39326;42.650;23.248;2022-12-18T03:23:44;4.77;;;4.37;;
53040;SDS011;39326;42.650;23.248;2022-12-18T03:26:12;5.43;;;4.93;;
53040;SDS011;39326;42.650;23.248;2022-12-18T03:28:44;4.37;;;3.97;;
53040;SDS011;39326;42.650;23.248;2022-12-18T03:31:14;4.40;;;4.00;;
53040;SDS011;39326;42.650;23.248;2022-12-18T03:33:42;5.03;;;4.10;;
53040;SDS011;39326;42.650;23.248;2022-12-18T03:36:13;3.77;;;3.40;;
53040;SDS011;39326;42.650;23.248;2022-12-18T03:38:39;3.70;;;3.40;;
53040;SDS011;39326;42.650;23.248;2022-12-18T03:51:55;4.07;;;3.67;;
53040;SDS011;39326;42.650;23.248;2022-12-18T03:54:26;3.27;;;2.97;;
53040;SDS011;39326;42.650;23.248;2022-12-18T03:56:57;4.10;;;3.70;;
53040;SDS011;39326;42.650;23.248;2022-12-18T03:59:26;2.93;;;2.63;;
53040;SDS011;39326;42.650;23.248;2022-12-18T04:01:54;4.70;;;3.67;;
53040;SDS011;39326;42.650;23.248;2022-12-18T04:04:22;3.80;;;3.40;;
53040;SDS011;39326;42.650;23.248;2022-12-18T04:06:49;4.33;;;3.83;;
53040;SDS011;39326;42.650;23.248;2022-12-18T04:09:16;3.80;;;3.50;;
53040;SDS011;39326;42.650;23.248;2022-12-18T04:11:41;4.23;;;3.83;;
53040;SDS011;39326;42.650;23.248;2022-12-18T04:14:08;4.13;;;3.73;;
53040;SDS011;39326;42.650;23.248;2022-12-18T04:16:34;4.00;;;3.60;;
53040;SDS011;39326;42.650;23.248;2022-12-18T04:19:00;3.73;;;3.40;;
53040;SDS011;39326;42.650;23.248;2022-12-18T04:21:25;4.27;;;3.90;;
53040;SDS011;39326;42.650;23.248;2022-12-18T04:23:51;4.33;;;3.93;;
53040;SDS011;39326;42.650;23.248;2022-12-18T04:26:16;3.73;;;3.27;;
53040;SDS011;39326;42.650;23.248;2022-12-18T04:28:42;4.37;;;3.97;;
53040;SDS011;39326;42.650;23.248;2022-12-18T04:31:07;4.47;;;4.07;;
53040;SDS011;39326;42.650;23.248;2022-12-18T04:33:33;5.00;;;4.50;;
53040;SDS011;39326;42.650;23.248;2022-12-18T04:35:58;4.43;;;4.03;;
53040;SDS011;39326;42.650;23.248;2022-12-18T04:38:23;4.70;;;4.30;;
53040;SDS011;39326;42.650;23.248;2022-12-18T04:40:49;3.87;;;3.57;;
53040;SDS011;39326;42.650;23.248;2022-12-18T04:43:14;4.77;;;4.17;;
53040;SDS011;39326;42.650;23.248;2022-12-18T04:45:40;4.30;;;3.87;;
53040;SDS011;39326;42.650;23.248;2022-12-18T04:48:05;4.67;;;4.27;;
53040;SDS011;39326;42.650;23.248;2022-12-18T04:50:31;5.67;;;4.80;;
53040;SDS011;39326;42.650;23.248;2022-12-18T04:52:56;5.30;;;4.57;;
53040;SDS011;39326;42.650;23.248;2022-12-18T04:55:22;5.40;;;4.87;;
53040;SDS011;39326;42.650;23.248;2022-12-18T04:57:47;6.17;;;4.80;;
53040;SDS011;39326;42.650;23.248;2022-12-18T05:00:13;5.53;;;5.03;;
53040;SDS011;39326;42.650;23.248;2022-12-18T05:02:38;5.67;;;5.17;;
53040;SDS011;39326;42.650;23.248;2022-12-18T05:05:04;5.07;;;4.57;;
53040;SDS011;39326;42.650;23.248;2022-12-18T05:07:30;5.83;;;5.23;;
53040;SDS011;39326;42.650;23.248;2022-12-18T05:09:55;5.83;;;5.10;;
53040;SDS011;39326;42.650;23.248;2022-12-18T05:12:21;5.00;;;4.50;;
53040;SDS011;39326;42.650;23.248;2022-12-18T05:14:50;5.00;;;4.50;;
53040;SDS011;39326;42.650;23.248;2022-12-18T05:17:15;6.00;;;4.90;;
53040;SDS011;39326;42.650;23.248;2022-12-18T05:19:40;5.30;;;4.77;;
53040;SDS011;39326;42.650;23.248;2022-12-18T05:22:06;5.60;;;4.73;;
53040;SDS011;39326;42.650;23.248;2022-12-18T05:24:31;5.80;;;5.20;;
53040;SDS011;39326;42.650;23.248;2022-12-18T05:26:57;5.63;;;5.13;;
53040;SDS011;39326;42.650;23.248;2022-12-18T05:29:22;5.63;;;5.10;;
53040;SDS011;39326;42.650;23.248;2022-12-18T05:31:47;5.93;;;5.43;;
53040;SDS011;39326;42.650;23.248;2022-12-18T05:34:13;6.73;;;5.30;;
53040;SDS011;39326;42.650;23.248;2022-12-18T05:36:38;4.73;;;4.30;;
53040;SDS011;39326;42.650;23.248;2022-12-18T05:39:04;4.93;;;4.43;;
53040;SDS011;39326;42.650;23.248;2022-12-18T05:41:29;5.40;;;4.90;;
53040;SDS011;39326;42.650;23.248;2022-12-18T05:43:54;4.97;;;4.47;;
53040;SDS011;39326;42.650;23.248;2022-12-18T05:46:20;5.90;;;5.33;;
53040;SDS011;39326;42.650;23.248;2022-12-18T05:48:46;5.33;;;4.83;;
53040;SDS011;39326;42.650;23.248;2022-12-18T05:51:13;5.10;;;4.60;;
53040;SDS011;39326;42.650;23.248;2022-12-18T05:53:40;5.90;;;5.30;;
53040;SDS011;39326;42.650;23.248;2022-12-18T05:56:08;5.93;;;5.33;;
53040;SDS011;39326;42.650;23.248;2022-12-18T05:58:37;5.57;;;5.03;;
53040;SDS011;39326;42.650;23.248;2022-12-18T06:01:22;8.97;;;6.70;;
53040;SDS011;39326;42.650;23.248;2022-12-18T06:03:50;6.63;;;5.73;;
53040;SDS011;39326;42.650;23.248;2022-12-18T06:06:22;5.97;;;5.37;;
53040;SDS011;39326;42.650;23.248;2022-12-18T06:08:50;6.17;;;5.57;;
53040;SDS011;39326;42.650;23.248;2022-12-18T06:11:17;7.53;;;6.10;;
53040;SDS011;39326;42.650;23.248;2022-12-18T06:13:49;6.90;;;6.20;;
53040;SDS011;39326;42.650;23.248;2022-12-18T06:16:15;8.40;;;6.47;;
53040;SDS011;39326;42.650;23.248;2022-12-18T06:18:40;8.33;;;7.53;;
53040;SDS011;39326;42.650;23.248;2022-12-18T06:21:06;8.43;;;7.20;;
53040;SDS011;39326;42.650;23.248;2022-12-18T06:23:31;6.33;;;5.73;;
53040;SDS011;39326;42.650;23.248;2022-12-18T06:25:57;7.90;;;6.83;;
53040;SDS011;39326;42.650;23.248;2022-12-18T06:28:22;6.70;;;6.07;;
53040;SDS011;39326;42.650;23.248;2022-12-18T06:30:48;6.87;;;6.10;;
53040;SDS011;39326;42.650;23.248;2022-12-18T06:33:14;7.20;;;6.50;;
53040;SDS011;39326;42.650;23.248;2022-12-18T06:35:41;7.23;;;6.53;;
53040;SDS011;39326;42.650;23.248;2022-12-18T06:38:06;7.50;;;6.47;;
53040;SDS011;39326;42.650;23.248;2022-12-18T06:43:01;6.43;;;5.80;;
53040;SDS011;39326;42.650;23.248;2022-12-18T06:45:27;8.37;;;7.57;;
53040;SDS011;39326;42.650;23.248;2022-12-18T06:47:52;7.63;;;6.50;;
53040;SDS011;39326;42.650;23.248;2022-12-18T06:50:18;8.07;;;7.27;;
53040;SDS011;39326;42.650;23.248;2022-12-18T06:52:44;6.80;;;6.20;;
53040;SDS011;39326;42.650;23.248;2022-12-18T06:55:10;6.70;;;5.67;;
53040;SDS011;39326;42.650;23.248;2022-12-18T06:57:36;7.30;;;6.60;;
53040;SDS011;39326;42.650;23.248;2022-12-18T07:00:03;7.00;;;5.57;;
53040;SDS011;39326;42.650;23.248;2022-12-18T07:02:30;6.97;;;6.23;;
53040;SDS011;39326;42.650;23.248;2022-12-18T07:04:55;6.07;;;5.47;;
53040;SDS011;39326;42.650;23.248;2022-12-18T07:07:21;7.90;;;7.10;;
53040;SDS011;39326;42.650;23.248;2022-12-18T07:09:46;7.17;;;6.47;;
53040;SDS011;39326;42.650;23.248;2022-12-18T07:12:11;6.90;;;6.20;;
53040;SDS011;39326;42.650;23.248;2022-12-18T07:14:37;7.37;;;6.17;;
53040;SDS011;39326;42.650;23.248;2022-12-18T07:17:02;7.67;;;6.83;;
53040;SDS011;39326;42.650;23.248;2022-12-18T07:19:28;8.20;;;7.30;;
53040;SDS011;39326;42.650;23.248;2022-12-18T07:21:54;7.10;;;6.50;;
53040;SDS011;39326;42.650;23.248;2022-12-18T07:24:19;6.90;;;6.20;;
53040;SDS011;39326;42.650;23.248;2022-12-18T07:26:45;7.27;;;6.57;;
53040;SDS011;39326;42.650;23.248;2022-12-18T07:29:11;7.63;;;6.77;;
53040;SDS011;39326;42.650;23.248;2022-12-18T07:31:36;8.03;;;7.23;;
53040;SDS011;39326;42.650;23.248;2022-12-18T07:34:02;7.20;;;6.50;;
53040;SDS011;39326;42.650;23.248;2022-12-18T07:36:27;7.50;;;6.67;;
53040;SDS011;39326;42.650;23.248;2022-12-18T07:38:53;8.43;;;6.80;;
53040;SDS011;39326;42.650;23.248;2022-12-18T07:41:18;7.97;;;7.17;;
53040;SDS011;39326;42.650;23.248;2022-12-18T07:43:44;6.93;;;6.23;;
53040;SDS011;39326;42.650;23.248;2022-12-18T07:46:10;7.43;;;6.63;;
53040;SDS011;39326;42.650;23.248;2022-12-18T07:48:38;7.93;;;7.13;;
53040;SDS011;39326;42.650;23.248;2022-12-18T07:51:05;8.57;;;7.63;;
53040;SDS011;39326;42.650;23.248;2022-12-18T07:53:31;8.30;;;7.00;;
53040;SDS011;39326;42.650;23.248;2022-12-18T07:55:58;7.97;;;7.03;;
53040;SDS011;39326;42.650;23.248;2022-12-18T07:58:25;8.00;;;7.20;;
53040;SDS011;39326;42.650;23.248;2022-12-18T08:00:50;8.13;;;7.33;;
53040;SDS011;39326;42.650;23.248;2022-12-18T08:03:17;7.73;;;6.60;;
53040;SDS011;39326;42.650;23.248;2022-12-18T08:05:43;7.70;;;6.90;;
53040;SDS011;39326;42.650;23.248;2022-12-18T08:08:08;8.83;;;7.60;;
53040;SDS011;39326;42.650;23.248;2022-12-18T08:10:33;8.40;;;6.97;;
53040;SDS011;39326;42.650;23.248;2022-12-18T08:12:59;8.43;;;7.60;;
53040;SDS011;39326;42.650;23.248;2022-12-18T08:15:24;8.80;;;7.90;;
53040;SDS011;39326;42.650;23.248;2022-12-18T08:17:50;9.37;;;8.03;;
53040;SDS011;39326;42.650;23.248;2022-12-18T08:20:15;9.40;;;8.40;;
53040;SDS011;39326;42.650;23.248;2022-12-18T08:22:42;9.40;;;8.50;;
53040;SDS011;39326;42.650;23.248;2022-12-18T08:25:07;8.67;;;7.83;;
53040;SDS011;39326;42.650;23.248;2022-12-18T08:27:33;8.47;;;7.60;;
53040;SDS011;39326;42.650;23.248;2022-12-18T08:29:59;8.10;;;7.30;;
53040;SDS011;39326;42.650;23.248;2022-12-18T08:32:25;8.50;;;7.70;;
53040;SDS011;39326;42.650;23.248;2022-12-18T08:34:52;8.63;;;7.73;;
53040;SDS011;39326;42.650;23.248;2022-12-18T08:37:17;8.23;;;7.43;;
53040;SDS011;39326;42.650;23.248;2022-12-18T08:39:42;8.87;;;7.73;;
53040;SDS011;39326;42.650;23.248;2022-12-18T08:42:08;9.53;;;8.10;;
53040;SDS011;39326;42.650;23.248;2022-12-18T08:44:52;8.67;;;7.40;;
53040;SDS011;39326;42.650;23.248;2022-12-18T08:47:17;8.67;;;7.87;;
53040;SDS011;39326;42.650;23.248;2022-12-18T08:49:43;8.67;;;6.97;;
53040;SDS011;39326;42.650;23.248;2022-12-18T08:52:08;10.50;;;8.97;;
53040;SDS011;39326;42.650;23.248;2022-12-18T08:54:34;10.50;;;8.80;;
53040;SDS011;39326;42.650;23.248;2022-12-18T08:56:59;11.10;;;9.87;;
53040;SDS011;39326;42.650;23.248;2022-12-18T08:59:25;8.93;;;8.03;;
53040;SDS011;39326;42.650;23.248;2022-12-18T09:01:53;11.13;;;9.93;;
53040;SDS011;39326;42.650;23.248;2022-12-18T09:04:18;13.47;;;12.07;;
53040;SDS011;39326;42.650;23.248;2022-12-18T09:06:44;16.60;;;15.00;;
53040;SDS011;39326;42.650;23.248;2022-12-18T09:09:09;17.37;;;15.73;;
53040;SDS011;39326;42.650;23.248;2022-12-18T09:11:36;18.90;;;17.30;;
53040;SDS011;39326;42.650;23.248;2022-12-18T09:14:01;21.37;;;19.37;;
53040;SDS011;39326;42.650;23.248;2022-12-18T09:16:27;24.43;;;22.13;;
53040;SDS011;39326;42.650;23.248;2022-12-18T09:18:56;25.67;;;23.27;;
53040;SDS011;39326;42.650;23.248;2022-12-18T09:21:25;22.27;;;20.27;;
53040;SDS011;39326;42.650;23.248;2022-12-18T09:23:52;22.10;;;19.97;;
53040;SDS011;39326;42.650;23.248;2022-12-18T09:26:20;21.57;;;19.57;;
53040;SDS011;39326;42.650;23.248;2022-12-18T09:28:49;44.97;;;41.07;;
53040;SDS011;39326;42.650;23.248;2022-12-18T09:31:16;19.90;;;17.90;;
53040;SDS011;39326;42.650;23.248;2022-12-18T09:33:43;23.80;;;21.70;;
53040;SDS011;39326;42.650;23.248;2022-12-18T09:36:10;20.77;;;18.57;;
53040;SDS011;39326;42.650;23.248;2022-12-18T09:38:37;31.50;;;28.73;;
53040;SDS011;39326;42.650;23.248;2022-12-18T09:41:04;22.10;;;20.00;;
53040;SDS011;39326;42.650;23.248;2022-12-18T09:43:47;18.77;;;16.60;;
53040;SDS011;39326;42.650;23.248;2022-12-18T09:46:23;21.50;;;17.33;;
53040;SDS011;39326;42.650;23.248;2022-12-18T09:48:54;16.20;;;14.50;;
53040;SDS011;39326;42.650;23.248;2022-12-18T09:51:28;16.63;;;14.83;;
53040;SDS011;39326;42.650;23.248;2022-12-18T09:54:01;17.93;;;16.07;;
53040;SDS011;39326;42.650;23.248;2022-12-18T09:56:31;17.03;;;15.23;;
53040;SDS011;39326;42.650;23.248;2022-12-18T09:59:02;27.23;;;25.03;;
53040;SDS011;39326;42.650;23.248;2022-12-18T10:01:29;21.37;;;19.37;;
53040;SDS011;39326;42.650;23.248;2022-12-18T10:03:56;21.63;;;19.43;;
53040;SDS011;39326;42.650;23.248;2022-12-18T10:06:31;19.13;;;16.37;;
53040;SDS011;39326;42.650;23.248;2022-12-18T10:18:28;21.43;;;19.43;;
53040;SDS011;39326;42.650;23.248;2022-12-18T10:20:30;24.47;;;21.93;;
53040;SDS011;39326;42.650;23.248;2022-12-18T10:28:29;20.43;;;18.43;;
53040;SDS011;39326;42.650;23.248;2022-12-18T10:30:56;21.20;;;19.13;;
53040;SDS011;39326;42.650;23.248;2022-12-18T10:33:23;31.47;;;28.87;;
53040;SDS011;39326;42.650;23.248;2022-12-18T10:35:52;21.23;;;19.17;;
53040;SDS011;39326;42.650;23.248;2022-12-18T10:43:19;18.57;;;16.67;;
53040;SDS011;39326;42.650;23.248;2022-12-18T10:51:16;16.27;;;14.57;;
53040;SDS011;39326;42.650;23.248;2022-12-18T10:54:14;22.57;;;20.30;;
53040;SDS011;39326;42.650;23.248;2022-12-18T10:56:42;17.77;;;14.90;;
53040;SDS011;39326;42.650;23.248;2022-12-18T10:59:10;20.43;;;18.43;;
53040;SDS011;39326;42.650;23.248;2022-12-18T11:01:47;15.50;;;13.47;;
53040;SDS011;39326;42.650;23.248;2022-12-18T11:04:24;17.43;;;15.63;;
53040;SDS011;39326;42.650;23.248;2022-12-18T11:06:56;17.17;;;15.47;;
53040;SDS011;39326;42.650;23.248;2022-12-18T11:09:34;15.73;;;14.13;;
53040;SDS011;39326;42.650;23.248;2022-12-18T11:12:01;15.97;;;12.70;;
53040;SDS011;39326;42.650;23.248;2022-12-18T11:14:43;17.50;;;15.83;;
53040;SDS011;39326;42.650;23.248;2022-12-18T11:17:22;15.17;;;13.57;;
53040;SDS011;39326;42.650;23.248;2022-12-18T11:19:58;14.73;;;13.23;;
53040;SDS011;39326;42.650;23.248;2022-12-18T11:22:30;14.13;;;12.37;;
53040;SDS011;39326;42.650;23.248;2022-12-18T11:25:00;14.33;;;11.80;;
53040;SDS011;39326;42.650;23.248;2022-12-18T11:27:35;14.40;;;12.40;;
53040;SDS011;39326;42.650;23.248;2022-12-18T11:30:45;15.93;;;14.23;;
53040;SDS011;39326;42.650;23.248;2022-12-18T11:33:18;13.30;;;11.90;;
53040;SDS011;39326;42.650;23.248;2022-12-18T11:35:50;20.47;;;18.67;;
53040;SDS011;39326;42.650;23.248;2022-12-18T11:38:32;15.13;;;13.63;;
53040;SDS011;39326;42.650;23.248;2022-12-18T11:44:15;15.27;;;13.77;;
53040;SDS011;39326;42.650;23.248;2022-12-18T11:46:51;13.00;;;11.33;;
53040;SDS011;39326;42.650;23.248;2022-12-18T11:49:24;15.80;;;14.20;;
53040;SDS011;39326;42.650;23.248;2022-12-18T11:54:53;16.30;;;13.90;;
53040;SDS011;39326;42.650;23.248;2022-12-18T12:10:21;12.13;;;10.83;;
53040;SDS011;39326;42.650;23.248;2022-12-18T12:26:11;12.77;;;9.37;;
53040;SDS011;39326;42.650;23.248;2022-12-18T12:34:19;12.23;;;10.70;;
53040;SDS011;39326;42.650;23.248;2022-12-18T12:39:34;11.87;;;9.80;;
53040;SDS011;39326;42.650;23.248;2022-12-18T12:42:04;12.60;;;10.27;;
53040;SDS011;39326;42.650;23.248;2022-12-18T12:44:55;13.17;;;10.40;;
53040;SDS011;39326;42.650;23.248;2022-12-18T12:47:25;13.83;;;11.20;;
53040;SDS011;39326;42.650;23.248;2022-12-18T12:49:54;14.33;;;11.57;;
53040;SDS011;39326;42.650;23.248;2022-12-18T12:52:27;14.07;;;11.60;;
53040;SDS011;39326;42.650;23.248;2022-12-18T12:54:59;15.50;;;12.50;;
53040;SDS011;39326;42.650;23.248;2022-12-18T12:57:32;13.80;;;12.27;;
53040;SDS011;39326;42.650;23.248;2022-12-18T13:05:34;15.40;;;13.20;;
53040;SDS011;39326;42.650;23.248;2022-12-18T13:08:04;14.60;;;12.90;;
53040;SDS011;39326;42.650;23.248;2022-12-18T13:10:41;14.43;;;12.53;;
53040;SDS011;39326;42.650;23.248;2022-12-18T13:13:08;15.60;;;13.90;;
53040;SDS011;39326;42.650;23.248;2022-12-18T13:15:47;17.20;;;14.33;;
53040;SDS011;39326;42.650;23.248;2022-12-18T13:18:28;16.70;;;14.10;;
53040;SDS011;39326;42.650;23.248;2022-12-18T13:25:47;14.57;;;12.93;;
53040;SDS011;39326;42.650;23.248;2022-12-18T13:28:15;14.10;;;12.57;;
53040;SDS011;39326;42.650;23.248;2022-12-18T13:35:38;13.90;;;12.50;;
53040;SDS011;39326;42.650;23.248;2022-12-18T13:38:20;15.27;;;13.67;;
53040;SDS011;39326;42.650;23.248;2022-12-18T13:43:31;14.80;;;13.03;;
53040;SDS011;39326;42.650;23.248;2022-12-18T13:49:03;15.50;;;13.27;;
53040;SDS011;39326;42.650;23.248;2022-12-18T13:51:48;15.67;;;13.87;;
53040;SDS011;39326;42.650;23.248;2022-12-18T13:54:35;16.17;;;13.90;;
53040;SDS011;39326;42.650;23.248;2022-12-18T13:57:04;15.60;;;13.10;;
53040;SDS011;39326;42.650;23.248;2022-12-18T13:59:38;15.23;;;12.97;;
53040;SDS011;39326;42.650;23.248;2022-12-18T14:02:15;16.47;;;13.97;;
53040;SDS011;39326;42.650;23.248;2022-12-18T14:04:44;15.43;;;13.23;;
53040;SDS011;39326;42.650;23.248;2022-12-18T14:07:15;17.03;;;13.53;;
53040;SDS011;39326;42.650;23.248;2022-12-18T14:09:44;15.33;;;13.37;;
53040;SDS011;39326;42.650;23.248;2022-12-18T14:12:18;15.37;;;13.67;;
53040;SDS011;39326;42.650;23.248;2022-12-18T14:15:05;16.17;;;13.57;;
53040;SDS011;39326;42.650;23.248;2022-12-18T14:17:41;13.07;;;11.63;;
53040;SDS011;39326;42.650;23.248;2022-12-18T14:20:12;16.60;;;13.50;;
53040;SDS011;39326;42.650;23.248;2022-12-18T14:22:42;15.53;;;12.97;;
53040;SDS011;39326;42.650;23.248;2022-12-18T14:27:41;14.50;;;11.80;;
53040;SDS011;39326;42.650;23.248;2022-12-18T14:30:31;14.73;;;12.70;;
53040;SDS011;39326;42.650;23.248;2022-12-18T14:33:10;15.53;;;12.70;;
53040;SDS011;39326;42.650;23.248;2022-12-18T14:35:38;13.57;;;11.63;;
53040;SDS011;39326;42.650;23.248;2022-12-18T14:38:33;16.87;;;12.33;;
53040;SDS011;39326;42.650;23.248;2022-12-18T14:41:15;14.77;;;13.17;;
53040;SDS011;39326;42.650;23.248;2022-12-18T14:43:43;16.43;;;13.83;;
53040;SDS011;39326;42.650;23.248;2022-12-18T14:48:57;14.20;;;12.53;;
53040;SDS011;39326;42.650;23.248;2022-12-18T14:51:25;14.57;;;13.00;;
53040;SDS011;39326;42.650;23.248;2022-12-18T14:53:56;14.00;;;12.50;;
53040;SDS011;39326;42.650;23.248;2022-12-18T14:56:24;15.60;;;13.97;;
53040;SDS011;39326;42.650;23.248;2022-12-18T15:01:39;15.73;;;14.03;;
53040;SDS011;39326;42.650;23.248;2022-12-18T15:04:34;16.60;;;13.23;;
53040;SDS011;39326;42.650;23.248;2022-12-18T15:07:22;15.93;;;13.97;;
53040;SDS011;39326;42.650;23.248;2022-12-18T15:12:39;16.40;;;13.47;;
53040;SDS011;39326;42.650;23.248;2022-12-18T15:20:33;30.07;;;23.70;;
53040;SDS011;39326;42.650;23.248;2022-12-18T15:23:14;18.53;;;15.00;;
53040;SDS011;39326;42.650;23.248;2022-12-18T15:25:45;25.83;;;22.43;;
53040;SDS011;39326;42.650;23.248;2022-12-18T15:28:25;29.67;;;26.60;;
53040;SDS011;39326;42.650;23.248;2022-12-18T15:33:40;19.13;;;17.13;;
53040;SDS011;39326;42.650;23.248;2022-12-18T15:36:28;16.30;;;12.83;;
53040;SDS011;39326;42.650;23.248;2022-12-18T15:39:01;14.80;;;13.30;;
53040;SDS011;39326;42.650;23.248;2022-12-18T15:41:28;14.17;;;12.67;;
53040;SDS011;39326;42.650;23.248;2022-12-18T15:43:57;36.37;;;30.27;;
53040;SDS011;39326;42.650;23.248;2022-12-18T15:46:23;19.57;;;16.97;;
53040;SDS011;39326;42.650;23.248;2022-12-18T15:48:50;18.00;;;16.20;;
53040;SDS011;39326;42.650;23.248;2022-12-18T15:53:49;22.33;;;20.33;;
53040;SDS011;39326;42.650;23.248;2022-12-18T15:56:17;14.77;;;13.30;;
53040;SDS011;39326;42.650;23.248;2022-12-18T15:59:04;15.70;;;12.23;;
53040;SDS011;39326;42.650;23.248;2022-12-18T16:01:34;15.50;;;12.30;;
53040;SDS011;39326;42.650;23.248;2022-12-18T16:04:00;13.50;;;11.53;;
53040;SDS011;39326;42.650;23.248;2022-12-18T16:06:25;12.47;;;11.17;;
53040;SDS011;39326;42.650;23.248;2022-12-18T16:08:51;14.93;;;11.80;;
53040;SDS011;39326;42.650;23.248;2022-12-18T16:11:26;15.50;;;14.00;;
53040;SDS011;39326;42.650;23.248;2022-12-18T16:14:06;18.07;;;16.27;;
53040;SDS011;39326;42.650;23.248;2022-12-18T16:16:36;12.73;;;11.43;;
53040;SDS011;39326;42.650;23.248;2022-12-18T16:19:01;12.30;;;10.57;;
53040;SDS011;39326;42.650;23.248;2022-12-18T16:21:26;13.07;;;11.63;;
53040;SDS011;39326;42.650;23.248;2022-12-18T16:23:52;12.50;;;11.20;;
53040;SDS011;39326;42.650;23.248;2022-12-18T16:26:17;13.80;;;12.40;;
53040;SDS011;39326;42.650;23.248;2022-12-18T16:28:43;21.83;;;19.83;;
53040;SDS011;39326;42.650;23.248;2022-12-18T16:31:08;14.70;;;13.17;;
53040;SDS011;39326;42.650;23.248;2022-12-18T16:33:33;36.63;;;33.60;;
53040;SDS011;39326;42.650;23.248;2022-12-18T16:35:59;19.00;;;17.13;;
53040;SDS011;39326;42.650;23.248;2022-12-18T16:38:24;28.13;;;25.70;;
53040;SDS011;39326;42.650;23.248;2022-12-18T16:40:50;26.60;;;24.20;;
53040;SDS011;39326;42.650;23.248;2022-12-18T16:43:47;17.63;;;15.77;;
53040;SDS011;39326;42.650;23.248;2022-12-18T16:46:13;17.50;;;15.33;;
53040;SDS011;39326;42.650;23.248;2022-12-18T16:48:38;16.33;;;13.47;;
53040;SDS011;39326;42.650;23.248;2022-12-18T16:51:04;13.23;;;11.47;;
53040;SDS011;39326;42.650;23.248;2022-12-18T16:53:31;14.77;;;12.30;;
53040;SDS011;39326;42.650;23.248;2022-12-18T16:55:57;13.90;;;11.60;;
53040;SDS011;39326;42.650;23.248;2022-12-18T16:58:22;13.67;;;12.27;;
53040;SDS011;39326;42.650;23.248;2022-12-18T17:00:48;14.50;;;13.00;;
53040;SDS011;39326;42.650;23.248;2022-12-18T17:03:13;14.87;;;12.97;;